Time;durP1;ratioP1;P1;durP2;ratioP2;P2;SDS_P1;SDS_P2;PMS_P1;PMS_P2;Temp;Humidity;BMP_temperature;BMP_pressure;BME280_temperature;BME280_humidity;BME280_pressure;Samples;Min_cycle;Max_cycle;Signal;HPM_P1;HPM_P2
2021/08/11 00:01:25;;;;;;;2.30;0.90;;;22.20;99.00;;;;;;5073531;28;20024;-72
2021/08/11 00:03:50;;;;;;;1.90;1.00;;;22.20;99.30;;;;;;5073616;28;20038;-71
2021/08/11 00:06:16;;;;;;;2.00;1.00;;;22.20;98.90;;;;;;5073645;28;20078;-71
2021/08/11 00:08:44;;;;;;;1.80;0.68;;;22.20;98.90;;;;;;5089251;28;20024;-70
2021/08/11 00:11:10;;;;;;;1.80;0.90;;;22.20;98.80;;;;;;5093240;28;20135;-71
2021/08/11 00:13:35;;;;;;;0.85;0.60;;;22.10;98.70;;;;;;5089799;28;20527;-71
2021/08/11 00:16:02;;;;;;;2.53;0.95;;;22.20;98.80;;;;;;5072005;28;20029;-71
2021/08/11 00:18:28;;;;;;;2.50;1.00;;;22.10;98.70;;;;;;5090400;28;20111;-72
2021/08/11 00:20:53;;;;;;;1.50;0.90;;;22.10;98.70;;;;;;5113741;28;20162;-71
2021/08/11 00:23:19;;;;;;;1.63;0.60;;;22.10;98.70;;;;;;5114423;28;20081;-71
2021/08/11 00:25:44;;;;;;;2.20;1.08;;;22.10;98.70;;;;;;5094679;28;20498;-71
2021/08/11 00:28:10;;;;;;;1.38;0.80;;;22.10;98.70;;;;;;5092849;28;20857;-71
2021/08/11 00:30:36;;;;;;;3.53;1.10;;;22.10;98.60;;;;;;5092940;28;20030;-71
2021/08/11 00:33:01;;;;;;;2.97;0.95;;;22.10;98.60;;;;;;5092653;28;20484;-71
2021/08/11 00:35:27;;;;;;;3.45;1.10;;;22.10;98.80;;;;;;5093582;28;20077;-71
2021/08/11 00:37:53;;;;;;;1.80;0.90;;;22.00;98.40;;;;;;5074546;28;20021;-71
2021/08/11 00:40:22;;;;;;;2.33;1.00;;;22.10;98.40;;;;;;5073294;28;20054;-71
2021/08/11 00:42:48;;;;;;;1.60;0.90;;;22.00;98.40;;;;;;5074140;28;20012;-71
2021/08/11 00:45:14;;;;;;;1.77;0.90;;;22.00;98.30;;;;;;5084962;28;20032;-71
2021/08/11 00:47:40;;;;;;;2.35;1.02;;;22.00;98.30;;;;;;5084495;28;20024;-71
2021/08/11 00:50:06;;;;;;;1.70;0.98;;;22.00;98.20;;;;;;5102630;28;20086;-71
2021/08/11 00:52:32;;;;;;;1.58;0.77;;;22.00;98.20;;;;;;5109300;28;20040;-72
2021/08/11 00:54:58;;;;;;;1.52;0.90;;;22.00;98.10;;;;;;5092745;28;20024;-71
2021/08/11 00:57:26;;;;;;;2.15;1.20;;;22.00;98.10;;;;;;5091957;28;20030;-72
2021/08/11 00:59:52;;;;;;;2.50;0.82;;;22.00;98.00;;;;;;5092086;28;20051;-70
2021/08/11 01:02:18;;;;;;;2.42;1.15;;;22.00;98.00;;;;;;5091610;28;20020;-71
2021/08/11 01:04:46;;;;;;;1.30;0.80;;;22.00;98.00;;;;;;5072550;28;20020;-71
2021/08/11 01:07:14;;;;;;;1.55;0.90;;;22.00;97.90;;;;;;5092319;28;20085;-70
2021/08/11 01:09:40;;;;;;;1.95;1.00;;;21.90;97.80;;;;;;5083951;28;20496;-71
2021/08/11 01:12:07;;;;;;;2.20;1.08;;;21.90;97.80;;;;;;5071715;28;20036;-72
2021/08/11 01:14:33;;;;;;;2.10;0.75;;;21.90;97.80;;;;;;5072217;28;20024;-69
2021/08/11 01:17:01;;;;;;;1.60;1.00;;;21.90;97.80;;;;;;5078581;28;20537;-71
2021/08/11 01:19:27;;;;;;;3.20;1.10;;;21.90;97.70;;;;;;5103199;28;20082;-71
2021/08/11 01:22:03;;;;;;;1.65;0.80;;;21.90;97.70;;;;;;5092308;28;20028;-71
2021/08/11 01:24:35;;;;;;;2.17;1.00;;;21.90;97.70;;;;;;5074281;28;20061;-71
2021/08/11 01:27:03;;;;;;;2.00;1.10;;;21.90;97.70;;;;;;5092173;28;20055;-71
2021/08/11 01:29:59;;;;;;;2.88;1.02;;;21.90;97.50;;;;;;5091943;28;20028;-71
2021/08/11 01:32:55;;;;;;;2.58;1.02;;;21.90;97.60;;;;;;5091790;28;20062;-71
2021/08/11 01:35:28;;;;;;;2.00;1.17;;;21.90;97.60;;;;;;5093169;28;20055;-70
2021/08/11 01:37:55;;;;;;;2.72;1.10;;;21.90;97.50;;;;;;5102609;28;20572;-71
2021/08/11 01:40:29;;;;;;;4.55;1.30;;;21.90;97.50;;;;;;5112359;28;20051;-71
2021/08/11 01:42:57;;;;;;;2.65;1.10;;;21.80;97.30;;;;;;5111808;28;20015;-71
2021/08/11 01:45:34;;;;;;;1.67;1.00;;;21.90;97.30;;;;;;5112300;28;20114;-71
2021/08/11 01:48:11;;;;;;;2.80;1.60;;;21.80;97.30;;;;;;5111715;28;20504;-72
2021/08/11 01:50:39;;;;;;;2.88;1.10;;;21.80;97.20;;;;;;5109013;28;20028;-71
2021/08/11 01:53:07;;;;;;;2.47;1.00;;;21.80;97.20;;;;;;5092592;28;20085;-71
2021/08/11 01:55:34;;;;;;;2.03;0.90;;;21.80;97.20;;;;;;5102897;28;20393;-71
2021/08/11 01:58:00;;;;;;;2.55;1.20;;;21.80;97.10;;;;;;5091550;28;20024;-71
2021/08/11 02:00:26;;;;;;;2.78;1.23;;;21.80;97.40;;;;;;5091544;28;20387;-70
2021/08/11 02:02:53;;;;;;;4.03;1.45;;;21.80;97.10;;;;;;5091647;28;20016;-71
2021/08/11 02:05:22;;;;;;;1.13;0.70;;;21.80;97.00;;;;;;5091971;28;20024;-70
2021/08/11 02:07:48;;;;;;;1.83;1.00;;;21.80;97.00;;;;;;5091677;28;20024;-70
2021/08/11 02:10:16;;;;;;;2.33;1.15;;;21.80;97.00;;;;;;5091092;28;20488;-71
2021/08/11 02:12:42;;;;;;;2.35;1.05;;;21.80;97.00;;;;;;5091287;28;20540;-71
2021/08/11 02:15:09;;;;;;;1.83;0.93;;;21.70;96.90;;;;;;5090937;28;20012;-71
2021/08/11 02:17:39;;;;;;;4.45;1.30;;;21.80;96.90;;;;;;5091576;28;20077;-69
2021/08/11 02:20:06;;;;;;;2.60;0.90;;;21.80;96.90;;;;;;5091328;28;20020;-71
2021/08/11 02:22:32;;;;;;;3.17;1.15;;;21.80;96.80;;;;;;5091303;28;20111;-69
2021/08/11 02:24:58;;;;;;;1.38;0.93;;;21.70;96.70;;;;;;5090923;28;20123;-72
2021/08/11 02:27:29;;;;;;;1.65;1.00;;;21.70;96.70;;;;;;5111052;28;20046;-71
2021/08/11 02:30:02;;;;;;;1.80;1.08;;;21.70;96.70;;;;;;5111522;28;20100;-71
2021/08/11 02:32:42;;;;;;;4.28;1.13;;;21.70;96.70;;;;;;5111175;28;20058;-72
2021/08/11 02:35:52;;;;;;;1.83;1.02;;;21.70;96.70;;;;;;5099705;28;20035;-70
2021/08/11 02:38:26;;;;;;;1.85;1.15;;;21.70;96.70;;;;;;5068264;28;20041;-71
2021/08/11 02:41:01;;;;;;;1.35;0.90;;;21.70;96.60;;;;;;5091105;28;20024;-70
2021/08/11 02:43:33;;;;;;;2.33;1.20;;;21.70;96.60;;;;;;5085626;28;20411;-71
2021/08/11 02:46:06;;;;;;;7.22;1.60;;;21.70;96.50;;;;;;5090747;28;20277;-71
2021/08/11 02:48:33;;;;;;;2.55;1.35;;;21.70;96.50;;;;;;5105778;28;20035;-71
2021/08/11 02:51:01;;;;;;;2.22;1.17;;;21.70;96.40;;;;;;5095030;28;20024;-70
2021/08/11 02:53:28;;;;;;;2.33;1.10;;;21.60;96.50;;;;;;5096321;28;20028;-71
2021/08/11 02:55:54;;;;;;;2.58;1.23;;;21.70;96.40;;;;;;5076879;28;20028;-70
2021/08/11 02:58:21;;;;;;;3.22;1.20;;;21.60;96.40;;;;;;5095355;28;20073;-70
2021/08/11 03:00:48;;;;;;;3.60;1.30;;;21.60;96.30;;;;;;5076996;28;20031;-70
2021/08/11 03:03:15;;;;;;;2.10;1.13;;;21.60;96.20;;;;;;5094778;28;20380;-69
2021/08/11 03:05:41;;;;;;;3.85;1.10;;;21.60;96.20;;;;;;5107458;28;20032;-71
2021/08/11 03:08:08;;;;;;;2.20;1.15;;;21.60;96.30;;;;;;5094789;28;20046;-70
2021/08/11 03:10:37;;;;;;;3.35;1.40;;;21.60;96.20;;;;;;5094585;28;20020;-72
2021/08/11 03:13:03;;;;;;;2.60;1.23;;;21.60;96.10;;;;;;5094648;28;20040;-70
2021/08/11 03:15:31;;;;;;;2.00;1.10;;;21.60;96.20;;;;;;5094765;28;20387;-71
2021/08/11 03:17:57;;;;;;;3.03;1.25;;;21.60;96.20;;;;;;5102013;28;20065;-69
2021/08/11 03:20:23;;;;;;;2.03;1.17;;;21.60;96.10;;;;;;5099129;28;20008;-70
2021/08/11 03:22:49;;;;;;;3.30;1.15;;;21.60;96.00;;;;;;5094876;28;20034;-70
2021/08/11 03:25:14;;;;;;;4.57;1.48;;;21.50;96.00;;;;;;5094194;28;20031;-71
2021/08/11 03:27:40;;;;;;;2.90;1.30;;;21.50;96.00;;;;;;5094420;28;20032;-71
2021/08/11 03:30:06;;;;;;;2.17;1.30;;;21.50;96.00;;;;;;5094734;28;20024;-71
2021/08/11 03:32:32;;;;;;;4.22;1.30;;;21.50;95.90;;;;;;5114425;28;20080;-71
2021/08/11 03:34:57;;;;;;;1.63;0.90;;;21.50;95.90;;;;;;5111721;28;20027;-69
2021/08/11 03:37:23;;;;;;;2.65;1.20;;;21.50;95.80;;;;;;5094241;28;20057;-70
2021/08/11 03:39:49;;;;;;;2.72;1.30;;;21.50;95.90;;;;;;5113519;28;20024;-71
2021/08/11 03:42:14;;;;;;;3.72;1.25;;;21.50;95.80;;;;;;5114018;28;20032;-69
2021/08/11 03:44:40;;;;;;;3.15;1.50;;;21.50;95.80;;;;;;5114540;28;20035;-71
2021/08/11 03:47:06;;;;;;;2.58;1.40;;;21.50;95.70;;;;;;5112137;28;20487;-70
2021/08/11 03:49:32;;;;;;;2.65;1.25;;;21.50;95.70;;;;;;5094672;28;20114;-71
2021/08/11 03:51:57;;;;;;;1.67;1.08;;;21.50;95.70;;;;;;5094088;28;20032;-71
2021/08/11 03:54:23;;;;;;;3.60;1.58;;;21.50;95.70;;;;;;5095113;28;20028;-71
2021/08/11 03:56:48;;;;;;;2.88;1.30;;;21.50;95.60;;;;;;5094522;28;20112;-70
2021/08/11 03:59:14;;;;;;;2.58;1.10;;;21.50;95.60;;;;;;5092495;28;20032;-71
2021/08/11 04:01:40;;;;;;;2.70;1.27;;;21.50;95.60;;;;;;5094026;28;20480;-71
2021/08/11 04:04:05;;;;;;;2.70;1.25;;;21.50;95.50;;;;;;5093594;28;20020;-69
2021/08/11 04:06:31;;;;;;;1.95;1.45;;;21.40;95.50;;;;;;5093819;28;20050;-71
2021/08/11 04:08:57;;;;;;;3.38;1.25;;;21.40;95.40;;;;;;5108093;28;20024;-70
2021/08/11 04:11:22;;;;;;;3.13;1.55;;;21.40;95.40;;;;;;5114234;28;20073;-69
2021/08/11 04:13:48;;;;;;;2.63;1.15;;;21.40;95.40;;;;;;5114541;28;20028;-69
2021/08/11 04:16:14;;;;;;;2.22;1.23;;;21.40;95.30;;;;;;5113967;28;20399;-70
2021/08/11 04:18:39;;;;;;;3.10;1.45;;;21.40;95.30;;;;;;5113134;28;20080;-70
2021/08/11 04:21:05;;;;;;;2.35;1.02;;;21.40;95.30;;;;;;5113402;28;20028;-69
2021/08/11 04:23:30;;;;;;;2.67;1.25;;;21.40;95.20;;;;;;5097833;28;20440;-70
2021/08/11 04:25:56;;;;;;;2.28;1.48;;;21.40;95.20;;;;;;5099709;28;20016;-70
2021/08/11 04:28:22;;;;;;;2.80;1.48;;;21.40;95.20;;;;;;5113697;28;20059;-70
2021/08/11 04:30:48;;;;;;;2.85;1.42;;;21.40;95.20;;;;;;5114116;28;20061;-72
2021/08/11 04:33:13;;;;;;;5.22;1.40;;;21.30;95.10;;;;;;5113493;28;20033;-69
2021/08/11 04:35:40;;;;;;;3.78;1.23;;;21.40;95.10;;;;;;5113385;28;20031;-69
2021/08/11 04:38:06;;;;;;;1.95;1.33;;;21.30;95.00;;;;;;5113034;28;20081;-69
2021/08/11 04:40:34;;;;;;;2.90;1.10;;;21.30;95.00;;;;;;5103159;28;20107;-71
2021/08/11 04:42:59;;;;;;;2.50;1.10;;;21.40;95.00;;;;;;5092912;28;20107;-70
2021/08/11 04:45:25;;;;;;;3.88;1.30;;;21.30;94.90;;;;;;5092824;28;20103;-71
2021/08/11 04:47:51;;;;;;;1.23;0.98;;;21.30;94.90;;;;;;5093118;28;20027;-70
2021/08/11 04:50:16;;;;;;;2.63;1.20;;;21.30;94.90;;;;;;5093040;28;20422;-71
2021/08/11 04:52:42;;;;;;;2.22;1.23;;;21.30;94.90;;;;;;5092955;28;20485;-71
2021/08/11 04:55:09;;;;;;;3.08;1.30;;;21.30;94.90;;;;;;5092649;28;20028;-70
2021/08/11 04:57:35;;;;;;;1.50;1.00;;;21.30;94.80;;;;;;5093712;28;20053;-70
2021/08/11 05:00:02;;;;;;;3.00;1.45;;;21.30;94.80;;;;;;5093736;28;20020;-70
2021/08/11 05:02:27;;;;;;;2.78;1.38;;;21.30;94.70;;;;;;5092849;28;20518;-70
2021/08/11 05:04:53;;;;;;;3.60;1.13;;;21.30;94.70;;;;;;5092663;28;20020;-70
2021/08/11 05:07:18;;;;;;;2.65;1.02;;;21.20;94.60;;;;;;5092997;28;20044;-69
2021/08/11 05:09:44;;;;;;;1.58;0.93;;;21.30;94.70;;;;;;5092555;28;20400;-71
2021/08/11 05:12:10;;;;;;;1.75;1.00;;;21.20;94.60;;;;;;5073019;28;20107;-71
2021/08/11 05:14:36;;;;;;;2.28;1.27;;;21.20;94.60;;;;;;5092663;28;20483;-73
2021/08/11 05:17:02;;;;;;;2.30;1.08;;;21.30;94.50;;;;;;5092450;28;20468;-72
2021/08/11 05:19:27;;;;;;;2.63;1.45;;;21.30;94.50;;;;;;5074382;28;20059;-73
2021/08/11 05:21:53;;;;;;;5.85;1.67;;;21.20;94.60;;;;;;5105194;28;20039;-72
2021/08/11 05:24:19;;;;;;;7.82;1.55;;;21.20;94.60;;;;;;5106695;28;20039;-71
2021/08/11 05:26:45;;;;;;;2.13;1.15;;;21.20;94.60;;;;;;5092060;28;20016;-71
2021/08/11 05:29:20;;;;;;;1.75;0.93;;;21.20;94.50;;;;;;5091949;28;20039;-72
2021/08/11 05:31:46;;;;;;;1.40;0.90;;;21.20;94.50;;;;;;5074162;28;20035;-71
2021/08/11 05:34:12;;;;;;;2.08;1.38;;;21.20;94.50;;;;;;5091860;28;20361;-71
2021/08/11 05:36:37;;;;;;;2.67;1.30;;;21.20;94.50;;;;;;5091949;28;20098;-71
2021/08/11 05:39:03;;;;;;;6.05;1.02;;;21.20;94.50;;;;;;5091280;28;20024;-72
2021/08/11 05:41:29;;;;;;;2.65;1.30;;;21.20;94.50;;;;;;5092917;28;20031;-74
2021/08/11 05:43:55;;;;;;;2.53;1.75;;;21.20;94.50;;;;;;5089663;28;20037;-73
2021/08/11 05:46:20;;;;;;;1.85;1.08;;;21.20;94.40;;;;;;5092294;28;20024;-73
2021/08/11 05:48:46;;;;;;;3.53;1.33;;;21.20;94.40;;;;;;5094904;28;20062;-72
2021/08/11 05:51:13;;;;;;;1.83;1.10;;;21.20;94.40;;;;;;5110027;28;20031;-72
2021/08/11 05:53:41;;;;;;;5.20;1.38;;;21.20;94.40;;;;;;5094020;28;20028;-71
2021/08/11 05:56:07;;;;;;;4.88;1.35;;;21.20;94.40;;;;;;5094411;28;20031;-73
2021/08/11 05:58:33;;;;;;;2.10;1.25;;;21.20;94.40;;;;;;5109302;28;20027;-73
2021/08/11 06:00:59;;;;;;;2.45;1.40;;;21.20;94.40;;;;;;5089900;28;20089;-72
2021/08/11 06:03:24;;;;;;;2.58;1.50;;;21.20;94.30;;;;;;5089972;28;20561;-73
2021/08/11 06:05:50;;;;;;;2.28;1.30;;;21.20;94.40;;;;;;5090366;28;20020;-73
2021/08/11 06:08:16;;;;;;;1.98;1.17;;;21.20;94.40;;;;;;5090211;28;20017;-73
2021/08/11 06:10:42;;;;;;;2.55;1.40;;;21.20;94.40;;;;;;5086745;28;20059;-74
2021/08/11 06:13:07;;;;;;;6.47;1.45;;;21.20;94.30;;;;;;5088961;28;20067;-73
2021/08/11 06:15:33;;;;;;;3.03;1.80;;;21.20;94.30;;;;;;5090604;28;20043;-73
2021/08/11 06:17:59;;;;;;;2.95;1.58;;;21.30;94.40;;;;;;5089712;28;20114;-74
2021/08/11 06:20:24;;;;;;;3.92;1.48;;;21.30;94.30;;;;;;5071675;28;20027;-74
2021/08/11 06:22:51;;;;;;;3.38;1.55;;;21.20;94.30;;;;;;5072310;28;20028;-74
2021/08/11 06:25:17;;;;;;;3.72;1.27;;;21.30;94.40;;;;;;5091709;28;20052;-73
2021/08/11 06:27:43;;;;;;;2.05;1.55;;;21.20;94.20;;;;;;5091284;28;20034;-73
2021/08/11 06:30:10;;;;;;;4.63;1.75;;;21.30;94.30;;;;;;5089590;28;20028;-73
2021/08/11 06:32:36;;;;;;;3.08;2.00;;;21.30;94.20;;;;;;5071321;28;20518;-73
2021/08/11 06:35:04;;;;;;;2.95;1.80;;;21.30;94.30;;;;;;5089708;28;20036;-73
2021/08/11 06:37:30;;;;;;;3.15;1.70;;;21.30;94.20;;;;;;5073212;28;20024;-73
2021/08/11 06:39:55;;;;;;;3.92;2.15;;;21.30;94.30;;;;;;5090182;28;20116;-72
2021/08/11 06:42:21;;;;;;;3.97;1.60;;;21.30;94.20;;;;;;5089654;28;20016;-72
2021/08/11 06:44:46;;;;;;;3.65;2.00;;;21.30;94.20;;;;;;5089953;28;20098;-73
2021/08/11 06:47:12;;;;;;;5.15;1.52;;;21.30;94.60;;;;;;5090495;28;20069;-70
2021/08/11 06:49:38;;;;;;;3.90;2.00;;;21.30;94.30;;;;;;5091074;28;20028;-71
2021/08/11 06:52:03;;;;;;;2.83;1.73;;;21.30;94.30;;;;;;5071158;28;20063;-72
2021/08/11 06:54:29;;;;;;;4.35;2.00;;;21.30;94.40;;;;;;5089547;28;20031;-72
2021/08/11 06:56:55;;;;;;;7.28;5.13;;;21.30;94.40;;;;;;5091411;28;20020;-72
2021/08/11 06:59:20;;;;;;;8.38;3.33;;;21.30;94.50;;;;;;5092150;28;20028;-70
2021/08/11 07:01:46;;;;;;;8.73;3.50;;;21.30;94.40;;;;;;5090809;28;20027;-69
2021/08/11 07:04:11;;;;;;;6.03;3.80;;;21.30;94.40;;;;;;5090853;28;20035;-70
2021/08/11 07:06:40;;;;;;;9.93;4.78;;;21.30;94.40;;;;;;5090767;28;20032;-70
2021/08/11 07:09:07;;;;;;;11.70;4.68;;;21.40;94.60;;;;;;5090658;28;20552;-70
2021/08/11 07:11:32;;;;;;;9.20;4.57;;;21.40;94.60;;;;;;5089548;28;20407;-70
2021/08/11 07:13:58;;;;;;;5.70;4.13;;;21.40;94.70;;;;;;5089493;28;20024;-71
2021/08/11 07:16:24;;;;;;;10.55;4.43;;;21.40;94.70;;;;;;5091055;28;20027;-71
2021/08/11 07:18:49;;;;;;;9.82;5.38;;;21.40;94.80;;;;;;5091185;28;20032;-70
2021/08/11 07:21:15;;;;;;;9.05;4.15;;;21.50;94.90;;;;;;5089619;28;20024;-71
2021/08/11 07:23:41;;;;;;;10.35;4.32;;;21.50;94.90;;;;;;5092531;28;20031;-70
2021/08/11 07:26:08;;;;;;;11.02;3.85;;;21.50;94.90;;;;;;5090235;28;20020;-70
2021/08/11 07:28:34;;;;;;;13.75;4.65;;;21.50;95.00;;;;;;5090722;28;20016;-71
2021/08/11 07:30:59;;;;;;;7.20;4.00;;;21.50;95.00;;;;;;5090260;28;20042;-70
2021/08/11 07:33:25;;;;;;;9.65;4.13;;;21.50;94.90;;;;;;5086309;28;20157;-70
2021/08/11 07:35:51;;;;;;;10.27;3.80;;;21.60;95.00;;;;;;5092625;28;20020;-68
2021/08/11 07:38:17;;;;;;;10.73;3.92;;;21.60;95.00;;;;;;5094465;28;20032;-70
2021/08/11 07:40:43;;;;;;;7.10;3.50;;;21.60;94.90;;;;;;5076404;28;20031;-70
2021/08/11 07:43:09;;;;;;;7.38;3.65;;;21.60;94.90;;;;;;5093880;28;20048;-69
2021/08/11 07:45:35;;;;;;;8.95;3.67;;;21.60;94.80;;;;;;5097452;28;20071;-70
2021/08/11 07:48:01;;;;;;;6.97;3.47;;;21.60;94.70;;;;;;5093780;28;20073;-70
2021/08/11 07:50:30;;;;;;;9.27;3.58;;;21.60;95.10;;;;;;5106811;28;20024;-70
2021/08/11 07:52:56;;;;;;;9.57;3.55;;;21.60;94.70;;;;;;5093361;28;20055;-70
2021/08/11 07:55:22;;;;;;;6.97;3.55;;;21.60;94.70;;;;;;5093355;28;20020;-69
2021/08/11 07:57:48;;;;;;;6.47;3.55;;;21.60;94.70;;;;;;5093970;28;20046;-70
2021/08/11 08:00:16;;;;;;;10.65;3.70;;;21.70;94.70;;;;;;5093226;28;20016;-70
2021/08/11 08:02:41;;;;;;;7.32;2.65;;;21.70;94.70;;;;;;5095343;28;20043;-69
2021/08/11 08:05:08;;;;;;;6.50;3.17;;;21.70;94.60;;;;;;5092605;28;20035;-70
2021/08/11 08:07:34;;;;;;;4.63;3.03;;;21.70;94.60;;;;;;5093156;28;20027;-70
2021/08/11 08:10:00;;;;;;;6.93;3.17;;;21.70;94.60;;;;;;5095812;28;20107;-69
2021/08/11 08:12:26;;;;;;;5.70;2.83;;;21.70;94.60;;;;;;5093626;28;20507;-70
2021/08/11 08:14:51;;;;;;;8.43;2.75;;;21.70;94.50;;;;;;5093387;28;20027;-69
2021/08/11 08:17:17;;;;;;;6.10;2.90;;;21.70;94.40;;;;;;5094144;28;20024;-70
2021/08/11 08:19:42;;;;;;;5.63;2.72;;;21.70;94.40;;;;;;5093524;28;20024;-69
2021/08/11 08:22:08;;;;;;;8.30;2.70;;;21.70;94.40;;;;;;5092921;28;20400;-69
2021/08/11 08:24:34;;;;;;;6.68;2.63;;;21.80;94.40;;;;;;5093012;28;20495;-69
2021/08/11 08:27:00;;;;;;;9.32;2.70;;;21.80;94.40;;;;;;5092603;28;20028;-70
2021/08/11 08:29:26;;;;;;;5.13;2.15;;;21.80;94.40;;;;;;5099722;28;20030;-71
2021/08/11 08:31:52;;;;;;;8.10;2.50;;;21.80;94.40;;;;;;5113504;28;20028;-73
2021/08/11 08:34:17;;;;;;;5.10;2.15;;;21.80;94.30;;;;;;5113951;28;20027;-70
2021/08/11 08:36:43;;;;;;;5.85;2.38;;;21.80;94.30;;;;;;5111883;28;20030;-70
2021/08/11 08:39:08;;;;;;;5.40;2.30;;;21.80;94.20;;;;;;5092828;28;20085;-72
2021/08/11 08:41:35;;;;;;;6.03;2.72;;;21.80;94.10;;;;;;5093204;28;20020;-71
2021/08/11 08:44:01;;;;;;;9.30;2.83;;;21.80;94.00;;;;;;5094479;28;20364;-70
2021/08/11 08:46:27;;;;;;;5.13;2.47;;;21.80;93.90;;;;;;5113149;28;20043;-71
2021/08/11 08:48:53;;;;;;;9.25;2.85;;;21.80;94.00;;;;;;5112917;28;20062;-71
2021/08/11 08:51:21;;;;;;;6.15;2.45;;;21.80;93.90;;;;;;5100539;28;20394;-71
2021/08/11 08:53:48;;;;;;;4.68;2.50;;;21.80;93.80;;;;;;5092781;28;20496;-71
2021/08/11 08:56:14;;;;;;;4.85;2.67;;;21.80;93.60;;;;;;5091860;28;20099;-71
2021/08/11 08:58:40;;;;;;;6.57;2.50;;;21.80;93.50;;;;;;5092200;28;20070;-70
2021/08/11 09:01:06;;;;;;;4.68;2.38;;;21.80;93.50;;;;;;5092192;28;20031;-71
2021/08/11 09:03:32;;;;;;;6.07;3.00;;;21.80;93.50;;;;;;5092156;28;20024;-71
2021/08/11 09:05:58;;;;;;;9.35;2.67;;;21.80;93.40;;;;;;5094057;28;20493;-71
2021/08/11 09:08:23;;;;;;;5.95;2.60;;;21.80;93.20;;;;;;5092829;28;20056;-72
2021/08/11 09:10:49;;;;;;;4.40;2.28;;;21.80;93.20;;;;;;5092144;28;20111;-71
2021/08/11 09:13:19;;;;;;;4.05;2.58;;;21.80;93.10;;;;;;5092336;28;20491;-70
2021/08/11 09:15:50;;;;;;;5.20;2.47;;;21.80;93.00;;;;;;5092870;28;20043;-71
2021/08/11 09:18:21;;;;;;;7.40;2.30;;;21.80;93.00;;;;;;5089032;28;20016;-71
2021/08/11 09:20:51;;;;;;;7.35;2.60;;;21.80;92.90;;;;;;5092034;28;20446;-70
2021/08/11 09:23:33;;;;;;;9.57;3.05;;;21.80;92.80;;;;;;5092627;28;20032;-70
2021/08/11 09:26:02;;;;;;;6.93;2.42;;;21.80;92.60;;;;;;5092279;28;20069;-71
2021/08/11 09:28:29;;;;;;;4.25;2.67;;;;;;;;;;5091574;28;20031;-70
2021/08/11 09:30:55;;;;;;;5.90;2.60;;;21.90;92.60;;;;;;5091980;28;20024;-71
2021/08/11 09:33:24;;;;;;;5.78;2.25;;;21.90;92.90;;;;;;5092426;28;20088;-69
2021/08/11 09:35:52;;;;;;;7.50;2.38;;;21.90;92.90;;;;;;5092373;28;20380;-74
2021/08/11 09:38:17;;;;;;;6.55;2.53;;;21.90;92.90;;;;;;5092172;28;20047;-72
2021/08/11 09:40:44;;;;;;;4.70;2.20;;;22.00;93.10;;;;;;5091791;28;20476;-71
2021/08/11 09:43:12;;;;;;;6.78;2.10;;;22.00;92.90;;;;;;5091391;28;20107;-71
2021/08/11 09:45:49;;;;;;;10.07;2.72;;;22.00;92.90;;;;;;5093408;28;20020;-71
2021/08/11 09:48:19;;;;;;;6.95;2.40;;;22.00;92.90;;;;;;5109603;28;20056;-71
2021/08/11 09:50:46;;;;;;;5.80;2.42;;;22.00;92.80;;;;;;5112034;28;20110;-74
2021/08/11 09:53:33;;;;;;;5.38;1.98;;;22.10;92.70;;;;;;5098316;28;20028;-74
2021/08/11 09:56:02;;;;;;;4.88;2.20;;;22.00;92.70;;;;;;5071467;28;20082;-74
2021/08/11 09:59:05;;;;;;;4.63;1.98;;;22.10;92.70;;;;;;5086352;28;20033;-74
2021/08/11 10:01:31;;;;;;;10.23;2.53;;;22.10;93.00;;;;;;5073623;28;20090;-73
2021/08/11 10:04:05;;;;;;;7.53;2.15;;;22.10;92.60;;;;;;5092252;28;20428;-75
2021/08/11 10:06:35;;;;;;;5.07;1.95;;;22.10;92.60;;;;;;5073383;28;20020;-74
2021/08/11 10:09:21;;;;;;;5.22;2.22;;;22.20;92.60;;;;;;5090907;28;20028;-73
2021/08/11 10:11:57;;;;;;;5.85;2.22;;;22.20;92.60;;;;;;5071649;28;20028;-75
2021/08/11 10:14:26;;;;;;;4.65;2.25;;;22.20;92.60;;;;;;5091528;28;20067;-73
2021/08/11 10:16:53;;;;;;;4.80;2.30;;;22.20;92.60;;;;;;5085169;28;20074;-73
2021/08/11 10:19:30;;;;;;;7.78;2.40;;;22.20;92.60;;;;;;5079947;28;20050;-74
2021/08/11 10:22:11;;;;;;;4.85;2.35;;;22.30;92.70;;;;;;5087789;28;20028;-74
2021/08/11 10:24:38;;;;;;;6.25;1.98;;;22.30;92.60;;;;;;5097331;28;20073;-72
2021/08/11 10:27:08;;;;;;;6.80;2.58;;;22.30;92.50;;;;;;5110589;28;20575;-72
2021/08/11 10:29:36;;;;;;;7.10;2.33;;;22.40;92.70;;;;;;5110999;28;20038;-72
2021/08/11 10:32:02;;;;;;;4.80;2.28;;;22.40;92.70;;;;;;5110189;28;20202;-72
2021/08/11 10:34:30;;;;;;;6.15;2.28;;;22.40;92.70;;;;;;5110897;28;20016;-71
2021/08/11 10:36:57;;;;;;;5.70;2.45;;;22.40;92.70;;;;;;5090206;28;20020;-72
2021/08/11 10:39:23;;;;;;;5.95;2.35;;;22.40;92.70;;;;;;5090322;28;20099;-72
2021/08/11 10:41:49;;;;;;;5.75;2.10;;;22.40;92.80;;;;;;5090742;28;20116;-73
2021/08/11 10:44:25;;;;;;;3.70;2.03;;;22.40;92.80;;;;;;5090188;28;20142;-71
2021/08/11 10:46:55;;;;;;;3.78;2.10;;;22.40;92.70;;;;;;5089975;28;20024;-72
2021/08/11 10:49:22;;;;;;;5.30;2.25;;;22.50;92.70;;;;;;5090137;28;20063;-72
2021/08/11 10:51:49;;;;;;;5.93;2.47;;;22.50;92.80;;;;;;5090233;28;20376;-74
2021/08/11 10:54:16;;;;;;;7.35;2.67;;;22.50;92.90;;;;;;5091243;28;20114;-74
2021/08/11 10:56:42;;;;;;;3.97;2.22;;;22.60;92.90;;;;;;5071971;28;20020;-73
2021/08/11 10:59:24;;;;;;;8.18;2.90;;;22.60;93.00;;;;;;5089786;28;20028;-72
2021/08/11 11:01:57;;;;;;;8.90;2.80;;;22.70;92.80;;;;;;5090272;28;20028;-73
2021/08/11 11:04:42;;;;;;;6.60;2.50;;;22.70;92.70;;;;;;5089984;28;20013;-74
2021/08/11 11:07:11;;;;;;;7.47;2.60;;;22.70;92.60;;;;;;5071757;28;20061;-75
2021/08/11 11:09:38;;;;;;;8.30;3.05;;;22.80;93.10;;;;;;5092524;28;20027;-76
2021/08/11 11:12:16;;;;;;;9.80;2.28;;;22.80;93.00;;;;;;5094753;28;20141;-77
2021/08/11 11:14:46;;;;;;;6.00;2.55;;;22.90;92.80;;;;;;5093649;28;20166;-76
2021/08/11 11:17:13;;;;;;;6.38;2.38;;;22.80;92.80;;;;;;5075560;28;20077;-75
2021/08/11 11:20:12;;;;;;;4.38;2.35;;;22.90;92.80;;;;;;5093934;28;20024;-76
2021/08/11 11:22:57;;;;;;;9.38;2.65;;;22.90;92.80;;;;;;5093661;28;20491;-75
2021/08/11 11:25:58;;;;;;;8.80;1.83;;;22.90;92.80;;;;;;5093882;28;20028;-78
2021/08/11 11:28:52;;;;;;;9.23;2.53;;;23.00;92.70;;;;;;5101235;28;20083;-72
2021/08/11 11:31:42;;;;;;;6.88;2.42;;;23.00;92.30;;;;;;5117412;28;20071;-72
2021/08/11 11:34:29;;;;;;;8.35;2.10;;;23.10;92.30;;;;;;5102105;28;20032;-72
2021/08/11 11:36:55;;;;;;;5.38;2.47;;;23.20;92.40;;;;;;5093303;28;20020;-73
2021/08/11 11:39:31;;;;;;;4.78;2.53;;;23.20;92.10;;;;;;5093734;28;20377;-73
2021/08/11 11:42:08;;;;;;;4.15;2.38;;;23.30;92.10;;;;;;5093313;28;20028;-73
2021/08/11 11:44:48;;;;;;;4.20;2.15;;;23.30;92.10;;;;;;5075360;28;20016;-73
2021/08/11 11:47:35;;;;;;;2.85;2.00;;;23.40;91.80;;;;;;5094705;28;20399;-73
2021/08/11 11:50:22;;;;;;;6.40;2.33;;;23.40;91.80;;;;;;5114813;28;20028;-74
2021/08/11 11:53:02;;;;;;;10.35;2.95;;;23.50;91.60;;;;;;5108647;28;20119;-73
2021/08/11 11:55:39;;;;;;;4.90;2.15;;;23.50;91.70;;;;;;5093302;28;20081;-72
2021/08/11 11:58:10;;;;;;;5.13;2.22;;;23.50;91.80;;;;;;5093670;28;20107;-73
2021/08/11 12:00:37;;;;;;;7.20;2.30;;;23.50;91.60;;;;;;5078963;28;20024;-73
2021/08/11 12:03:03;;;;;;;7.20;2.15;;;23.60;91.70;;;;;;5092339;28;20031;-73
2021/08/11 12:05:46;;;;;;;6.07;2.75;;;23.60;91.60;;;;;;5093256;28;20035;-74
2021/08/11 12:08:13;;;;;;;5.80;2.47;;;23.60;91.40;;;;;;5092784;28;20024;-73
2021/08/11 12:10:39;;;;;;;8.38;2.72;;;23.60;91.50;;;;;;5093333;28;20112;-74
2021/08/11 12:13:05;;;;;;;3.20;2.00;;;23.70;91.60;;;;;;5092561;28;20028;-74
2021/08/11 12:15:34;;;;;;;4.82;2.30;;;23.70;91.30;;;;;;5093078;28;20028;-74
2021/08/11 12:18:12;;;;;;;5.90;2.28;;;23.70;91.10;;;;;;5092550;28;20568;-74
2021/08/11 12:20:38;;;;;;;6.15;2.70;;;23.80;91.00;;;;;;5092245;28;20020;-73
2021/08/11 12:23:31;;;;;;;4.35;2.63;;;23.80;90.90;;;;;;5092944;28;20035;-74
2021/08/11 12:26:12;;;;;;;3.70;2.15;;;23.80;90.90;;;;;;5090958;28;20445;-73
2021/08/11 12:28:43;;;;;;;2.97;2.17;;;23.90;90.80;;;;;;5082773;28;20031;-72
2021/08/11 12:31:11;;;;;;;5.75;2.50;;;23.90;90.70;;;;;;5093948;28;20032;-73
2021/08/11 12:33:38;;;;;;;4.90;2.47;;;23.90;90.60;;;;;;5111381;28;20046;-74
2021/08/11 12:36:11;;;;;;;5.60;2.50;;;23.90;90.40;;;;;;5113280;28;20060;-74
2021/08/11 12:38:39;;;;;;;3.92;2.42;;;23.90;90.40;;;;;;5095220;28;20027;-74
2021/08/11 12:41:24;;;;;;;5.65;1.90;;;23.90;90.30;;;;;;5113539;28;20016;-74
2021/08/11 12:43:52;;;;;;;6.00;1.85;;;24.00;90.30;;;;;;5110089;28;20055;-75
2021/08/11 12:46:37;;;;;;;4.97;2.78;;;24.00;90.30;;;;;;5093517;28;20020;-75
2021/08/11 12:49:22;;;;;;;;;;;24.00;90.20;;;;;;5092232;28;20032;-74
2021/08/11 12:52:16;;;;;;;3.65;1.88;;;24.10;90.10;;;;;;5081637;28;19947;-75
2021/08/11 12:55:02;;;;;;;3.90;1.90;;;24.10;90.00;;;;;;5090346;28;20035;-72
2021/08/11 12:57:39;;;;;;;3.78;1.90;;;24.10;90.00;;;;;;5092958;28;20035;-74